Time;durP1;ratioP1;P1;durP2;ratioP2;P2;SDS_P1;SDS_P2;PMS_P1;PMS_P2;Temp;Humidity;BMP_temperature;BMP_pressure;BME280_temperature;BME280_humidity;BME280_pressure;Samples;Min_cycle;Max_cycle;Signal;HPM_P1;HPM_P2
2021/06/20 00:01:54;;;;;;;11.20;9.52;;;;;;;;;;4994666;28;20046;-86
2021/06/20 00:04:22;;;;;;;11.07;9.35;;;;;;;;;;4985086;28;20470;-86
2021/06/20 00:06:50;;;;;;;12.52;9.93;;;;;;;;;;4988165;28;20061;-84
2021/06/20 00:09:17;;;;;;;11.18;10.07;;;;;;;;;;4977864;28;20070;-85
2021/06/20 00:11:45;;;;;;;10.95;9.57;;;;;;;;;;4971887;28;20038;-84
2021/06/20 00:14:12;;;;;;;12.10;10.90;;;;;;;;;;4989331;28;20495;-83
2021/06/20 00:16:40;;;;;;;11.00;9.90;;;;;;;;;;4981553;28;20051;-83
2021/06/20 00:19:08;;;;;;;14.35;11.35;;;;;;;;;;4983609;28;20051;-83
2021/06/20 00:21:37;;;;;;;11.30;10.20;;;;;;;;;;4986464;28;20377;-83
2021/06/20 00:24:04;;;;;;;11.52;10.18;;;;;;;;;;4983707;28;20057;-83
2021/06/20 00:26:30;;;;;;;10.70;9.73;;;;;;;;;;4994235;28;20050;-82
2021/06/20 00:28:57;;;;;;;12.10;10.88;;;;;;;;;;4984585;28;20054;-83
2021/06/20 00:31:23;;;;;;;10.88;9.45;;;;;;;;;;4987989;28;20050;-85
2021/06/20 00:33:50;;;;;;;15.48;11.32;;;;;;;;;;4992137;28;20406;-84
2021/06/20 00:36:16;;;;;;;10.68;9.57;;;;;;;;;;4970068;28;20050;-82
2021/06/20 00:38:44;;;;;;;11.30;10.20;;;;;;;;;;4984945;28;20043;-82
2021/06/20 00:41:11;;;;;;;11.50;10.23;;;;;;;;;;4989464;28;20509;-81
2021/06/20 00:43:37;;;;;;;12.13;9.90;;;;;;;;;;4995210;28;20407;-82
2021/06/20 00:46:05;;;;;;;12.88;10.20;;;;;;;;;;4985609;28;20440;-83
2021/06/20 00:48:32;;;;;;;10.15;9.07;;;;;;;;;;4988975;28;20055;-82
2021/06/20 00:50:58;;;;;;;14.90;9.65;;;;;;;;;;4986238;28;20074;-82
2021/06/20 00:53:25;;;;;;;11.88;10.40;;;;;;;;;;4986343;28;20042;-81
2021/06/20 00:55:53;;;;;;;13.50;10.52;;;;;;;;;;4984171;28;20046;-82
2021/06/20 00:58:21;;;;;;;10.75;9.63;;;;;;;;;;4992637;28;20046;-82
2021/06/20 01:00:48;;;;;;;11.00;9.90;;;;;;;;;;4996007;28;20054;-82
2021/06/20 01:03:14;;;;;;;11.27;10.15;;;;;;;;;;4991618;28;20050;-85
2021/06/20 01:05:41;;;;;;;13.95;11.02;;;;;;;;;;4984261;28;20051;-82
2021/06/20 01:08:09;;;;;;;10.75;9.68;;;;;;;;;;4991258;28;20052;-83
2021/06/20 01:10:36;;;;;;;11.07;9.82;;;;;;;;;;4985122;28;20057;-83
2021/06/20 01:13:06;;;;;;;11.48;10.30;;;;;;;;;;4986937;28;20050;-85
2021/06/20 01:15:33;;;;;;;14.40;11.38;;;;;;;;;;4982878;28;20051;-84
2021/06/20 01:17:59;;;;;;;11.20;10.20;;;;;;;;;;4992693;28;20051;-84
2021/06/20 01:20:26;;;;;;;11.48;10.35;;;;;;;;;;4990409;28;20042;-84
2021/06/20 01:22:55;;;;;;;11.23;10.23;;;;;;;;;;4982916;28;20126;-83
2021/06/20 01:25:24;;;;;;;11.05;9.93;;;;;;;;;;4988929;28;20050;-83
2021/06/20 01:27:53;;;;;;;11.02;9.93;;;;;;;;;;4969579;28;20495;-82
2021/06/20 01:30:23;;;;;;;11.38;10.18;;;;;;;;;;4992008;28;20406;-83
2021/06/20 01:32:49;;;;;;;10.65;9.38;;;;;;;;;;4987221;28;20401;-85
2021/06/20 01:35:17;;;;;;;11.07;9.90;;;;;;;;;;4993993;28;20049;-83
2021/06/20 01:37:43;;;;;;;11.57;10.48;;;;;;;;;;4989047;28;20054;-85
2021/06/20 01:40:13;;;;;;;11.57;10.35;;;;;;;;;;4981493;28;20051;-84
2021/06/20 01:42:40;;;;;;;11.50;10.25;;;;;;;;;;4994522;28;20051;-84
2021/06/20 01:45:09;;;;;;;10.10;9.20;;;;;;;;;;4989640;28;20042;-84
2021/06/20 01:47:36;;;;;;;11.55;10.35;;;;;;;;;;4987655;28;20058;-85
2021/06/20 01:50:05;;;;;;;12.98;10.80;;;;;;;;;;4991356;28;20045;-83
2021/06/20 01:52:31;;;;;;;11.55;10.40;;;;;;;;;;4981913;28;20483;-84
2021/06/20 01:54:58;;;;;;;11.07;10.00;;;;;;;;;;4987736;28;20054;-84
2021/06/20 01:57:27;;;;;;;13.88;11.05;;;;;;;;;;4998185;28;20050;-83
2021/06/20 01:59:54;;;;;;;11.98;10.70;;;;;;;;;;4996493;28;20507;-85
2021/06/20 02:02:22;;;;;;;11.38;10.25;;;;;;;;;;4983890;28;20047;-83
2021/06/20 02:04:50;;;;;;;11.05;9.93;;;;;;;;;;4995427;28;20442;-83
2021/06/20 02:07:16;;;;;;;11.43;10.15;;;;;;;;;;4998550;28;20145;-83
2021/06/20 02:09:43;;;;;;;12.93;11.63;;;;;;;;;;4998069;28;20506;-83
2021/06/20 02:12:12;;;;;;;12.35;11.15;;;;;;;;;;4998953;28;20057;-84
2021/06/20 02:14:40;;;;;;;11.98;10.88;;;;;;;;;;4997232;28;20050;-83
2021/06/20 02:17:14;;;;;;;12.60;11.27;;;;;;;;;;4991007;28;20051;-84
2021/06/20 02:19:41;;;;;;;12.10;11.00;;;;;;;;;;4998428;28;20149;-84
2021/06/20 02:22:07;;;;;;;12.48;10.95;;;;;;;;;;4999209;28;20042;-84
2021/06/20 02:24:34;;;;;;;12.75;11.45;;;;;;;;;;4998256;28;20051;-86
2021/06/20 02:27:00;;;;;;;12.50;11.07;;;;;;;;;;4998285;28;20045;-85
2021/06/20 02:29:27;;;;;;;12.40;10.45;;;;;;;;;;4979303;28;20419;-84
2021/06/20 02:31:55;;;;;;;13.07;11.65;;;;;;;;;;4983775;28;20047;-84
2021/06/20 02:34:21;;;;;;;14.68;12.35;;;;;;;;;;4998323;28;20051;-83
2021/06/20 02:36:48;;;;;;;13.27;12.07;;;;;;;;;;4999394;28;20131;-85
2021/06/20 02:39:14;;;;;;;12.32;11.18;;;;;;;;;;4999640;28;20058;-85
2021/06/20 02:41:41;;;;;;;13.50;12.10;;;;;;;;;;4999244;28;20050;-83
2021/06/20 02:44:07;;;;;;;15.55;13.75;;;;;;;;;;4999100;28;20419;-84
2021/06/20 02:46:34;;;;;;;12.23;10.93;;;;;;;;;;4980340;28;20534;-84
2021/06/20 02:49:02;;;;;;;14.18;12.70;;;;;;;;;;4979929;28;20070;-85
2021/06/20 02:51:29;;;;;;;14.05;12.60;;;;;;;;;;4980027;28;20051;-87
2021/06/20 02:53:56;;;;;;;13.43;11.60;;;;;;;;;;4982038;28;20086;-84
2021/06/20 02:56:22;;;;;;;12.50;11.30;;;;;;;;;;4980835;28;20523;-85
2021/06/20 02:58:49;;;;;;;14.60;13.20;;;;;;;;;;4981328;28;20056;-83
2021/06/20 03:01:15;;;;;;;12.60;11.45;;;;;;;;;;4999305;28;20050;-84
2021/06/20 03:03:42;;;;;;;12.07;10.98;;;;;;;;;;4985760;28;20066;-83
2021/06/20 03:06:10;;;;;;;14.45;11.60;;;;;;;;;;4981148;28;20070;-84
2021/06/20 03:08:37;;;;;;;12.43;11.13;;;;;;;;;;4976715;28;20046;-83
2021/06/20 03:11:03;;;;;;;13.60;12.30;;;;;;;;;;4976540;28;20046;-82
2021/06/20 03:13:31;;;;;;;14.93;12.27;;;;;;;;;;4990661;28;20061;-82
2021/06/20 03:15:57;;;;;;;13.05;11.00;;;;;;;;;;4996033;28;20097;-83
2021/06/20 03:18:24;;;;;;;14.68;11.95;;;;;;;;;;4996155;28;20043;-82
2021/06/20 03:20:50;;;;;;;11.95;10.75;;;;;;;;;;4995355;28;20610;-82
2021/06/20 03:23:18;;;;;;;13.77;10.95;;;;;;;;;;4989450;28;20042;-84
2021/06/20 03:25:44;;;;;;;12.98;11.77;;;;;;;;;;4977239;28;20051;-86
2021/06/20 03:28:11;;;;;;;14.18;12.27;;;;;;;;;;4976888;28;20050;-84
2021/06/20 03:30:38;;;;;;;13.32;11.52;;;;;;;;;;4977061;28;20055;-84
2021/06/20 03:33:05;;;;;;;13.20;12.00;;;;;;;;;;4977219;28;20403;-83
2021/06/20 03:35:31;;;;;;;16.20;11.85;;;;;;;;;;4977468;28;20047;-83
2021/06/20 03:37:58;;;;;;;13.23;11.57;;;;;;;;;;4984311;28;20491;-83
2021/06/20 03:40:26;;;;;;;15.13;13.57;;;;;;;;;;4998316;28;20505;-83
2021/06/20 03:42:52;;;;;;;18.35;13.23;;;;;;;;;;4998099;28;20052;-85
2021/06/20 03:45:19;;;;;;;20.52;14.57;;;;;;;;;;4999499;28;20050;-85
2021/06/20 03:47:46;;;;;;;14.23;12.75;;;;;;;;;;4980616;28;20047;-83
2021/06/20 03:50:13;;;;;;;18.02;14.65;;;;;;;;;;4975383;28;20050;-83
2021/06/20 03:52:40;;;;;;;18.60;13.57;;;;;;;;;;4975125;28;20051;-85
2021/06/20 03:55:09;;;;;;;17.23;15.52;;;;;;;;;;4975296;28;20053;-83
2021/06/20 03:57:37;;;;;;;17.85;15.98;;;;;;;;;;4975235;28;20067;-83
2021/06/20 04:00:05;;;;;;;16.38;14.75;;;;;;;;;;4978183;28;20065;-83
2021/06/20 04:02:31;;;;;;;15.70;14.13;;;;;;;;;;4993800;28;20073;-83
2021/06/20 04:04:58;;;;;;;16.02;14.60;;;;;;;;;;4998295;28;20051;-83
2021/06/20 04:07:24;;;;;;;17.83;15.38;;;;;;;;;;4993406;28;20043;-83
2021/06/20 04:09:51;;;;;;;15.52;13.50;;;;;;;;;;4978696;28;20057;-82
2021/06/20 04:12:17;;;;;;;16.88;14.98;;;;;;;;;;4978971;28;20407;-81
2021/06/20 04:14:45;;;;;;;24.33;15.52;;;;;;;;;;4978492;28;20050;-83
2021/06/20 04:17:12;;;;;;;16.10;14.00;;;;;;;;;;4978802;28;20051;-82
2021/06/20 04:19:40;;;;;;;15.98;14.35;;;;;;;;;;4978576;28;20399;-82
2021/06/20 04:22:06;;;;;;;16.88;14.27;;;;;;;;;;4978867;28;20141;-81
2021/06/20 04:24:33;;;;;;;19.33;14.43;;;;;;;;;;4978645;28;20058;-82
2021/06/20 04:26:59;;;;;;;29.60;16.95;;;;;;;;;;4978386;28;20046;-81
2021/06/20 04:29:26;;;;;;;17.17;15.25;;;;;;;;;;4991248;28;20048;-84
2021/06/20 04:31:54;;;;;;;16.50;14.90;;;;;;;;;;4992610;28;20403;-82
2021/06/20 04:34:20;;;;;;;15.88;14.27;;;;;;;;;;4997887;28;20054;-82
2021/06/20 04:36:47;;;;;;;19.92;15.23;;;;;;;;;;4997596;28;20053;-82
2021/06/20 04:39:14;;;;;;;15.20;13.63;;;;;;;;;;4996435;28;20054;-82
2021/06/20 04:41:41;;;;;;;15.57;13.98;;;;;;;;;;4998148;28;20050;-82
2021/06/20 04:44:42;;;;;;;16.73;15.07;;;;;;;;;;4997810;28;20050;-82
2021/06/20 04:46:56;;;;;;;16.23;14.68;;;;;;;;;;4980333;28;20078;-83
2021/06/20 04:49:23;;;;;;;16.63;14.93;;;;;;;;;;4960694;28;20062;-83
2021/06/20 04:51:49;;;;;;;17.10;14.05;;;;;;;;;;4960804;28;20054;-82
2021/06/20 04:54:16;;;;;;;15.55;13.90;;;;;;;;;;4977853;28;20408;-82
2021/06/20 04:56:43;;;;;;;14.50;12.13;;;;;;;;;;4977496;28;20050;-82
2021/06/20 04:59:10;;;;;;;18.08;15.27;;;;;;;;;;4978257;28;20051;-82
2021/06/20 05:01:38;;;;;;;14.73;13.20;;;;;;;;;;4996088;28;20050;-82
2021/06/20 05:04:07;;;;;;;14.82;12.43;;;;;;;;;;4980803;28;20426;-83
2021/06/20 05:06:34;;;;;;;13.50;12.15;;;;;;;;;;4997391;28;20047;-83
2021/06/20 05:09:00;;;;;;;13.95;12.38;;;;;;;;;;4997532;28;20062;-82
2021/06/20 05:11:27;;;;;;;16.88;13.80;;;;;;;;;;4979258;28;20488;-84
2021/06/20 05:13:53;;;;;;;16.80;12.95;;;;;;;;;;4997332;28;20046;-83
2021/06/20 05:16:20;;;;;;;19.48;12.60;;;;;;;;;;4997405;28;20051;-82
2021/06/20 05:18:47;;;;;;;13.82;12.32;;;;;;;;;;4979813;28;20057;-82
2021/06/20 05:21:14;;;;;;;15.40;12.00;;;;;;;;;;4997356;28;20056;-82
2021/06/20 05:23:41;;;;;;;15.02;13.25;;;;;;;;;;4989265;28;20489;-83
2021/06/20 05:26:07;;;;;;;14.13;12.50;;;;;;;;;;4977627;28;20043;-83
2021/06/20 05:28:34;;;;;;;14.07;12.68;;;;;;;;;;4977902;28;20057;-82
2021/06/20 05:31:00;;;;;;;13.70;12.30;;;;;;;;;;4977695;28;20047;-82
2021/06/20 05:33:27;;;;;;;15.18;12.50;;;;;;;;;;4983456;28;20045;-82
2021/06/20 05:35:53;;;;;;;17.15;12.23;;;;;;;;;;4997203;28;20050;-83
2021/06/20 05:38:21;;;;;;;16.80;13.20;;;;;;;;;;4997913;28;20399;-83
2021/06/20 05:40:48;;;;;;;16.73;12.73;;;;;;;;;;4997308;28;20418;-84
2021/06/20 05:43:14;;;;;;;13.95;11.73;;;;;;;;;;4996346;28;20130;-82
2021/06/20 05:45:41;;;;;;;13.00;11.02;;;;;;;;;;4997722;28;20049;-84
2021/06/20 05:48:08;;;;;;;13.10;11.45;;;;;;;;;;4997468;28;20050;-83
2021/06/20 05:50:35;;;;;;;15.93;11.80;;;;;;;;;;4997938;28;20050;-82
2021/06/20 05:53:01;;;;;;;12.90;11.52;;;;;;;;;;4998208;28;20491;-82
2021/06/20 05:55:29;;;;;;;15.20;12.15;;;;;;;;;;4998994;28;20129;-83
2021/06/20 05:57:55;;;;;;;14.93;12.15;;;;;;;;;;4998869;28;20050;-84
2021/06/20 06:00:22;;;;;;;12.55;11.32;;;;;;;;;;4988598;28;20046;-82
2021/06/20 06:02:48;;;;;;;13.23;11.82;;;;;;;;;;4998196;28;20051;-83
2021/06/20 06:05:15;;;;;;;14.07;12.18;;;;;;;;;;4999571;28;20050;-83
2021/06/20 06:07:42;;;;;;;18.20;11.43;;;;;;;;;;4994979;28;20050;-82
2021/06/20 06:10:09;;;;;;;15.05;11.90;;;;;;;;;;4977099;28;20074;-82
2021/06/20 06:12:37;;;;;;;14.75;11.63;;;;;;;;;;4976333;28;20053;-82
2021/06/20 06:15:05;;;;;;;13.27;11.88;;;;;;;;;;4976536;28;20050;-83
2021/06/20 06:17:31;;;;;;;16.15;12.32;;;;;;;;;;4976209;28;20062;-82
2021/06/20 06:19:58;;;;;;;17.40;11.88;;;;;;;;;;4975764;28;20484;-82
2021/06/20 06:22:24;;;;;;;24.08;12.93;;;;;;;;;;4987405;28;20046;-83
2021/06/20 06:24:53;;;;;;;14.93;11.80;;;;;;;;;;4987309;28;20731;-83
2021/06/20 06:27:19;;;;;;;16.15;10.55;;;;;;;;;;4975989;28;20043;-82
2021/06/20 06:29:47;;;;;;;16.95;10.40;;;;;;;;;;4978179;28;20043;-82
2021/06/20 06:32:14;;;;;;;15.60;8.32;;;;;;;;;;4993132;28;20399;-83
2021/06/20 06:34:41;;;;;;;16.15;8.20;;;;;;;;;;4997127;28;20046;-83
2021/06/20 06:37:08;;;;;;;17.42;8.90;;;;;;;;;;4996459;28;20046;-83
2021/06/20 06:39:34;;;;;;;13.50;7.57;;;;;;;;;;4996336;28;20050;-82
2021/06/20 06:42:01;;;;;;;16.73;7.53;;;;;;;;;;4996555;28;20057;-82
2021/06/20 06:44:28;;;;;;;20.30;8.02;;;;;;;;;;4996855;28;20047;-82
2021/06/20 06:46:56;;;;;;;19.10;7.57;;;;;;;;;;4996697;28;20414;-84
2021/06/20 06:49:23;;;;;;;15.77;8.25;;;;;;;;;;4996612;28;20050;-83
2021/06/20 06:51:50;;;;;;;19.10;7.05;;;;;;;;;;4982871;28;20134;-84
2021/06/20 06:54:17;;;;;;;17.52;7.80;;;;;;;;;;4986691;28;20054;-81
2021/06/20 06:56:44;;;;;;;19.05;8.02;;;;;;;;;;4995000;28;20097;-81
2021/06/20 06:59:11;;;;;;;13.55;6.85;;;;;;;;;;4995287;28;20042;-83
2021/06/20 07:01:37;;;;;;;16.75;6.70;;;;;;;;;;4977895;28;20117;-82
2021/06/20 07:04:05;;;;;;;16.77;7.00;;;;;;;;;;4994835;28;20053;-82
2021/06/20 07:06:32;;;;;;;17.13;7.80;;;;;;;;;;4982975;28;20057;-83
2021/06/20 07:08:58;;;;;;;21.20;6.82;;;;;;;;;;4969723;28;20061;-82
2021/06/20 07:11:25;;;;;;;23.13;7.68;;;;;;;;;;4996527;28;20053;-82
2021/06/20 07:13:51;;;;;;;18.77;7.75;;;;;;;;;;4993472;28;20050;-82
2021/06/20 07:16:18;;;;;;;20.00;7.88;;;;;;;;;;4993155;28;20042;-82
2021/06/20 07:18:44;;;;;;;20.42;8.02;;;;;;;;;;4987097;28;20043;-85
2021/06/20 07:21:12;;;;;;;18.42;7.32;;;;;;;;;;4989735;28;20046;-82
2021/06/20 07:23:39;;;;;;;19.63;6.78;;;;;;;;;;4996995;28;20042;-83
2021/06/20 07:26:06;;;;;;;19.55;6.80;;;;;;;;;;4982299;28;20105;-83
2021/06/20 07:28:32;;;;;;;21.17;7.15;;;;;;;;;;4977323;28;20054;-81
2021/06/20 07:30:59;;;;;;;17.50;7.55;;;;;;;;;;4988131;28;20398;-84
2021/06/20 07:33:26;;;;;;;23.63;7.45;;;;;;;;;;4986763;28;20047;-82
2021/06/20 07:35:52;;;;;;;19.05;7.22;;;;;;;;;;4975399;28;20043;-84
2021/06/20 07:38:20;;;;;;;20.85;7.82;;;;;;;;;;4987786;28;20053;-84
2021/06/20 07:40:47;;;;;;;17.75;7.28;;;;;;;;;;4979004;28;20396;-82
2021/06/20 07:43:14;;;;;;;24.25;7.47;;;;;;;;;;4990683;28;20050;-86
2021/06/20 07:45:41;;;;;;;17.80;6.78;;;;;;;;;;4976975;28;20053;-83
2021/06/20 07:48:08;;;;;;;22.75;7.72;;;;;;;;;;4997077;28;20050;-82
2021/06/20 07:50:35;;;;;;;26.10;7.30;;;;;;;;;;4995746;28;20050;-82
2021/06/20 07:53:02;;;;;;;19.25;7.45;;;;;;;;;;4996875;28;20043;-82
2021/06/20 07:55:30;;;;;;;17.23;6.32;;;;;;;;;;4996392;28;20057;-84
2021/06/20 07:57:56;;;;;;;18.92;5.93;;;;;;;;;;4995476;28;20414;-85
2021/06/20 08:00:24;;;;;;;18.35;5.97;;;;;;;;;;4986073;28;20046;-85
2021/06/20 08:02:50;;;;;;;17.48;6.45;;;;;;;;;;4989929;28;20121;-84
2021/06/20 08:05:17;;;;;;;17.40;5.60;;;;;;;;;;4991615;28;20043;-86
2021/06/20 08:07:43;;;;;;;23.30;6.82;;;;;;;;;;4985954;28;20503;-84
2021/06/20 08:10:11;;;;;;;18.90;5.88;;;;;;;;;;4988425;28;20055;-84
2021/06/20 08:12:39;;;;;;;15.63;6.18;;;;;;;;;;4984232;28;21226;-84
2021/06/20 08:15:07;;;;;;;15.85;5.25;;;;;;;;;;4987729;28;20046;-84
2021/06/20 08:17:34;;;;;;;21.13;6.63;;;;;;;;;;4984021;28;20058;-83
2021/06/20 08:20:00;;;;;;;17.00;6.32;;;;;;;;;;4986180;28;20046;-82
2021/06/20 08:22:27;;;;;;;14.73;5.88;;;;;;;;;;4987147;28;20047;-83
2021/06/20 08:24:54;;;;;;;16.80;5.30;;;;;;;;;;4993401;28;20058;-83
2021/06/20 08:27:20;;;;;;;17.35;5.40;;;;;;;;;;4991324;28;20352;-82
2021/06/20 08:29:52;;;;;;;16.02;5.18;;;;;;;;;;4997597;28;20129;-83
2021/06/20 08:32:19;;;;;;;18.10;5.40;;;;;;;;;;4993515;28;20464;-85
2021/06/20 08:34:47;;;;;;;17.80;5.53;;;;;;;;;;4995482;28;20050;-82
2021/06/20 08:37:14;;;;;;;15.90;5.55;;;;;;;;;;4989348;28;20509;-85
2021/06/20 08:39:40;;;;;;;12.95;5.45;;;;;;;;;;4987671;28;20047;-81
2021/06/20 08:42:07;;;;;;;14.77;4.90;;;;;;;;;;4974257;28;20042;-80
2021/06/20 08:44:34;;;;;;;14.65;5.25;;;;;;;;;;4993823;28;20050;-82
2021/06/20 08:47:04;;;;;;;15.88;4.85;;;;;;;;;;4994785;28;20053;-81
2021/06/20 08:49:31;;;;;;;27.58;6.22;;;;;;;;;;4997839;28;20129;-82
2021/06/20 08:51:59;;;;;;;21.52;5.53;;;;;;;;;;4993878;28;20072;-82
2021/06/20 08:54:26;;;;;;;18.65;5.40;;;;;;;;;;4996030;28;20049;-84
2021/06/20 08:56:52;;;;;;;29.63;6.25;;;;;;;;;;4986714;28;20046;-83
2021/06/20 08:59:20;;;;;;;22.52;5.85;;;;;;;;;;4995381;28;20043;-83
2021/06/20 09:01:46;;;;;;;19.00;5.78;;;;;;;;;;4984646;28;20061;-83
2021/06/20 09:04:24;;;;;;;21.98;5.35;;;;;;;;;;4997475;28;20058;-84
2021/06/20 09:06:50;;;;;;;56.10;8.70;;;;;;;;;;4993131;28;20051;-83
2021/06/20 09:09:27;;;;;;;112.28;17.88;;;;;;;;;;4990282;28;20057;-83
2021/06/20 09:11:53;;;;;;;59.50;11.18;;;;;;;;;;5003049;28;20721;-82
2021/06/20 09:14:21;;;;;;;28.75;6.45;;;;;;;;;;4990448;28;20046;-86
2021/06/20 09:16:49;;;;;;;19.67;5.90;;;;;;;;;;4989022;28;20233;-85
2021/06/20 09:19:18;;;;;;;24.25;6.25;;;;;;;;;;4999007;28;20042;-86
2021/06/20 09:21:52;;;;;;;15.35;5.70;;;;;;;;;;4999668;28;20038;-86
2021/06/20 09:24:19;;;;;;;15.98;5.25;;;;;;;;;;4979284;28;20448;-84
2021/06/20 09:26:46;;;;;;;18.20;5.30;;;;;;;;;;4988413;28;20042;-82
2021/06/20 09:29:12;;;;;;;18.08;4.90;;;;;;;;;;4985858;28;20053;-86
2021/06/20 09:31:53;;;;;;;19.25;5.18;;;;;;;;;;4995370;28;20380;-84
2021/06/20 09:34:21;;;;;;;17.27;4.47;;;;;;;;;;4985909;28;20499;-83
2021/06/20 09:37:00;;;;;;;11.75;4.70;;;;;;;;;;4991416;28;20038;-83
2021/06/20 09:39:27;;;;;;;14.77;5.13;;;;;;;;;;4996409;28;20415;-83
2021/06/20 09:41:58;;;;;;;18.38;4.60;;;;;;;;;;4984669;28;20119;-83
2021/06/20 09:44:43;;;;;;;12.30;4.22;;;;;;;;;;4980253;28;20049;-83
2021/06/20 09:47:13;;;;;;;16.52;4.85;;;;;;;;;;4986451;28;20043;-85
2021/06/20 09:49:43;;;;;;;18.85;4.82;;;;;;;;;;4988208;28;20049;-84
2021/06/20 09:52:11;;;;;;;19.73;4.80;;;;;;;;;;4986993;28;20056;-83
2021/06/20 09:54:38;;;;;;;15.65;4.75;;;;;;;;;;4982638;28;20451;-83
2021/06/20 09:57:13;;;;;;;17.63;4.30;;;;;;;;;;4996420;28;20052;-82
2021/06/20 09:59:42;;;;;;;15.60;4.85;;;;;;;;;;4978103;28;20057;-85
2021/06/20 10:02:12;;;;;;;20.80;4.93;;;;;;;;;;4998406;28;20050;-84
2021/06/20 10:04:42;;;;;;;16.75;4.72;;;;;;;;;;4997009;28;20142;-84
2021/06/20 10:07:10;;;;;;;15.07;4.75;;;;;;;;;;4994554;28;20402;-82
2021/06/20 10:09:37;;;;;;;18.08;5.45;;;;;;;;;;4977495;28;20047;-82
2021/06/20 10:12:06;;;;;;;14.68;4.28;;;;;;;;;;4998860;28;20113;-83
2021/06/20 10:14:33;;;;;;;13.00;4.93;;;;;;;;;;4995980;28;20054;-82
2021/06/20 10:17:05;;;;;;;18.83;5.15;;;;;;;;;;4996249;28;20050;-82
2021/06/20 10:19:31;;;;;;;20.48;5.85;;;;;;;;;;4995953;28;20058;-83
2021/06/20 10:22:06;;;;;;;19.27;5.47;;;;;;;;;;4994725;28;20141;-84
2021/06/20 10:24:43;;;;;;;13.45;4.65;;;;;;;;;;4995908;28;20077;-82
2021/06/20 10:27:10;;;;;;;13.65;4.80;;;;;;;;;;4996001;28;20074;-83
2021/06/20 10:29:38;;;;;;;16.63;5.00;;;;;;;;;;4995882;28;20050;-84
2021/06/20 10:32:15;;;;;;;18.33;5.63;;;;;;;;;;4995485;28;20057;-83
2021/06/20 10:34:51;;;;;;;15.27;4.72;;;;;;;;;;4996146;28;20054;-83
2021/06/20 10:37:20;;;;;;;17.55;4.50;;;;;;;;;;4994930;28;20050;-82
2021/06/20 10:39:47;;;;;;;20.55;4.72;;;;;;;;;;4980143;28;20047;-83
2021/06/20 10:42:14;;;;;;;15.23;4.60;;;;;;;;;;4978366;28;20055;-84
2021/06/20 10:44:43;;;;;;;14.68;5.18;;;;;;;;;;4987141;28;20052;-82
2021/06/20 10:47:09;;;;;;;15.48;4.95;;;;;;;;;;4992570;28;20046;-84
2021/06/20 10:49:36;;;;;;;14.52;4.35;;;;;;;;;;4991810;28;20050;-82
2021/06/20 10:52:14;;;;;;;17.58;5.47;;;;;;;;;;4991529;28;20112;-82
2021/06/20 10:54:43;;;;;;;14.70;4.97;;;;;;;;;;4989125;28;20061;-84
2021/06/20 10:57:12;;;;;;;21.23;5.75;;;;;;;;;;4979244;28;20047;-83
2021/06/20 10:59:39;;;;;;;17.25;4.95;;;;;;;;;;4976786;28;20050;-83
2021/06/20 11:02:07;;;;;;;15.80;5.35;;;;;;;;;;4987846;28;20050;-83
2021/06/20 11:04:41;;;;;;;20.60;5.50;;;;;;;;;;4990114;28;20125;-84
2021/06/20 11:07:07;;;;;;;20.15;5.38;;;;;;;;;;4973575;28;20054;-84
2021/06/20 11:09:37;;;;;;;18.17;4.88;;;;;;;;;;4992853;28;20515;-84
2021/06/20 11:12:13;;;;;;;14.88;5.22;;;;;;;;;;4993921;28;20047;-83
2021/06/20 11:14:42;;;;;;;19.90;5.78;;;;;;;;;;4975847;28;20055;-84
2021/06/20 11:17:09;;;;;;;19.08;5.55;;;;;;;;;;4959302;28;20051;-83
2021/06/20 11:19:37;;;;;;;16.35;5.93;;;;;;;;;;4956315;28;20519;-84
2021/06/20 11:22:05;;;;;;;25.17;6.45;;;;;;;;;;4974965;28;20042;-83
2021/06/20 11:24:33;;;;;;;17.25;5.72;;;;;;;;;;4970005;28;20047;-83
2021/06/20 11:27:02;;;;;;;27.40;6.03;;;;;;;;;;4960351;28;20051;-83
2021/06/20 11:29:40;;;;;;;22.75;5.38;;;;;;;;;;4956439;29;20403;-83
2021/06/20 11:32:07;;;;;;;23.52;5.70;;;;;;;;;;4965777;28;20216;-81
2021/06/20 11:34:34;;;;;;;15.73;5.75;;;;;;;;;;4962485;28;20042;-81
2021/06/20 11:37:00;;;;;;;17.48;5.85;;;;;;;;;;4972735;28;20046;-84
2021/06/20 11:39:35;;;;;;;20.95;5.43;;;;;;;;;;4967207;28;20046;-84
2021/06/20 11:42:02;;;;;;;17.35;5.72;;;;;;;;;;4965863;28;20046;-83
2021/06/20 11:44:28;;;;;;;21.13;6.05;;;;;;;;;;4975817;28;20126;-84
2021/06/20 11:46:56;;;;;;;18.55;5.05;;;;;;;;;;4956341;28;20051;-83
2021/06/20 11:49:25;;;;;;;20.77;6.57;;;;;;;;;;4961069;28;20039;-83
2021/06/20 11:51:55;;;;;;;17.73;5.68;;;;;;;;;;4977154;28;20042;-85
2021/06/20 11:54:24;;;;;;;18.40;5.65;;;;;;;;;;4975261;28;20496;-84
2021/06/20 11:56:52;;;;;;;16.85;5.88;;;;;;;;;;4974209;28;20053;-86
2021/06/20 11:59:30;;;;;;;19.17;5.60;;;;;;;;;;4971782;28;20531;-83
2021/06/20 12:02:09;;;;;;;16.33;5.10;;;;;;;;;;4964837;28;20050;-85
2021/06/20 12:04:36;;;;;;;17.25;5.63;;;;;;;;;;4970439;28;20414;-83
2021/06/20 12:07:06;;;;;;;21.42;5.80;;;;;;;;;;4975962;28;20047;-83
2021/06/20 12:09:33;;;;;;;16.13;4.50;;;;;;;;;;4974338;28;20517;-82
2021/06/20 12:12:02;;;;;;;16.38;5.20;;;;;;;;;;4974992;28;20103;-88
2021/06/20 12:14:30;;;;;;;15.18;5.30;;;;;;;;;;4966678;28;20146;-83
2021/06/20 12:16:59;;;;;;;14.27;4.70;;;;;;;;;;4966537;28;20055;-83
2021/06/20 12:19:27;;;;;;;15.80;5.97;;;;;;;;;;4972888;28;20566;-84
2021/06/20 12:22:08;;;;;;;12.75;4.78;;;;;;;;;;4970255;28;20517;-85
2021/06/20 12:24:37;;;;;;;16.33;5.28;;;;;;;;;;4968215;28;20055;-84
2021/06/20 12:27:07;;;;;;;16.30;5.00;;;;;;;;;;4961133;28;20474;-85
2021/06/20 12:29:35;;;;;;;19.35;5.70;;;;;;;;;;4966356;28;20138;-85
2021/06/20 12:32:06;;;;;;;14.90;4.85;;;;;;;;;;4977207;28;20061;-85
2021/06/20 12:34:43;;;;;;;14.73;5.05;;;;;;;;;;4968003;28;20062;-84
2021/06/20 12:37:10;;;;;;;17.05;5.47;;;;;;;;;;4974794;28;20561;-84
2021/06/20 12:39:42;;;;;;;17.75;5.57;;;;;;;;;;4967310;28;20471;-82
2021/06/20 12:42:09;;;;;;;17.17;6.32;;;;;;;;;;4973633;28;20061;-81
2021/06/20 12:44:45;;;;;;;17.08;5.22;;;;;;;;;;4965379;28;20058;-83
2021/06/20 12:47:13;;;;;;;18.17;5.25;;;;;;;;;;4965852;28;20047;-82
2021/06/20 12:49:40;;;;;;;22.00;6.13;;;;;;;;;;4959668;28;20411;-82
2021/06/20 12:52:07;;;;;;;19.00;5.65;;;;;;;;;;4959450;28;20094;-83
2021/06/20 12:54:39;;;;;;;18.88;5.45;;;;;;;;;;4974667;28;20491;-86
2021/06/20 12:57:08;;;;;;;17.50;5.72;;;;;;;;;;4980691;28;20045;-82
2021/06/20 12:59:38;;;;;;;17.88;5.40;;;;;;;;;;4979967;28;20046;-82
2021/06/20 13:02:06;;;;;;;16.92;5.63;;;;;;;;;;4985401;28;20038;-83
2021/06/20 13:04:34;;;;;;;17.33;5.40;;;;;;;;;;4975955;28;20073;-81
2021/06/20 13:07:01;;;;;;;17.88;5.72;;;;;;;;;;4980610;28;20047;-82
2021/06/20 13:09:28;;;;;;;21.77;5.60;;;;;;;;;;4980293;28;20046;-82
2021/06/20 13:11:54;;;;;;;28.23;6.50;;;;;;;;;;4977224;28;20042;-83
2021/06/20 13:14:22;;;;;;;18.73;6.10;;;;;;;;;;4975144;28;20042;-83
2021/06/20 13:16:50;;;;;;;17.88;5.30;;;;;;;;;;4980292;28;20050;-84
2021/06/20 13:19:19;;;;;;;15.75;5.20;;;;;;;;;;4996856;28;20058;-82
2021/06/20 13:21:48;;;;;;;22.17;6.07;;;;;;;;;;4997054;28;20047;-81
2021/06/20 13:24:16;;;;;;;18.58;5.68;;;;;;;;;;4996979;28;20097;-84
2021/06/20 13:26:44;;;;;;;19.73;5.55;;;;;;;;;;4997233;28;20050;-82
2021/06/20 13:29:10;;;;;;;21.50;5.72;;;;;;;;;;4997089;28;20042;-82
2021/06/20 13:31:37;;;;;;;23.00;6.55;;;;;;;;;;4998051;28;20054;-82
2021/06/20 13:34:04;;;;;;;18.25;5.70;;;;;;;;;;4993472;28;20043;-82
2021/06/20 13:36:31;;;;;;;20.35;6.95;;;;;;;;;;4972066;28;20122;-82
2021/06/20 13:39:00;;;;;;;17.73;6.15;;;;;;;;;;4958460;29;20145;-82
2021/06/20 13:41:26;;;;;;;24.95;5.70;;;;;;;;;;4958438;29;20678;-82
2021/06/20 13:43:53;;;;;;;22.17;6.15;;;;;;;;;;4972015;28;20069;-82
2021/06/20 13:46:19;;;;;;;19.73;5.75;;;;;;;;;;4975055;28;20051;-85
2021/06/20 13:48:46;;;;;;;18.52;5.53;;;;;;;;;;4972956;28;20050;-83
2021/06/20 13:51:12;;;;;;;21.65;6.22;;;;;;;;;;4970007;28;20054;-82
2021/06/20 13:53:39;;;;;;;19.55;6.10;;;;;;;;;;4980388;28;20062;-83
2021/06/20 13:56:07;;;;;;;19.60;6.10;;;;;;;;;;4977417;28;20059;-84
2021/06/20 13:58:34;;;;;;;17.30;6.00;;;;;;;;;;4977644;28;20050;-85
2021/06/20 14:01:00;;;;;;;17.90;6.32;;;;;;;;;;4967867;28;20082;-83
2021/06/20 14:03:28;;;;;;;19.48;5.93;;;;;;;;;;4973219;28;20057;-83
2021/06/20 14:05:55;;;;;;;19.02;6.53;;;;;;;;;;4969675;28;20485;-82
2021/06/20 14:08:22;;;;;;;19.05;6.60;;;;;;;;;;4966130;28;20078;-85
2021/06/20 14:10:50;;;;;;;16.58;5.82;;;;;;;;;;4964099;28;20051;-83
2021/06/20 14:13:18;;;;;;;19.05;6.50;;;;;;;;;;4968566;28;20078;-84
2021/06/20 14:15:54;;;;;;;15.63;5.63;;;;;;;;;;4974181;28;20050;-83
2021/06/20 14:18:20;;;;;;;17.50;6.07;;;;;;;;;;4972841;28;20098;-83
2021/06/20 14:20:47;;;;;;;20.25;6.20;;;;;;;;;;4962219;28;20054;-82
2021/06/20 14:23:16;;;;;;;17.77;6.43;;;;;;;;;;4969552;28;20050;-81
2021/06/20 14:25:46;;;;;;;22.50;6.47;;;;;;;;;;4981996;28;20047;-84
2021/06/20 14:28:18;;;;;;;19.70;6.18;;;;;;;;;;4982590;28;20071;-85